KEYW/EYW METAR and TAF weather

Enter ICAO airport designator
Station Type Date Time Source
KEYW METAR 2024/05/28 22:53 UTC NOAA

KEYW 282253Z 19005KT 10SM FEW028 31/26 A2999 RMK AO2 SLP162 T03110256


Station Type Date Time Source
KEYW Decoded METAR 2024/05/28 22:53 UTC NOAA

KEY WEST INTERNATIONAL AIRPORT , FL, United States (KEYW) 24-33N 81-46W 5M
May 28, 2024 - 06:53 PM EDT / 2024.05.28 2253 UTC
Wind: from the S (190 degrees) at 6 MPH (5 KT):0
Visibility: 10 mile(s):0
Sky conditions: mostly clear
Temperature: 88.0 F (31.1 C)
Heat index: 101.3 F (38.5 C):1
Dew Point: 78.1 F (25.6 C)
Relative Humidity: 72%
Pressure (altimeter): 29.99 in. Hg (1015 hPa)
ob: KEYW 282253Z 19005KT 10SM FEW028 31/26 A2999 RMK AO2 SLP162 T03110256
cycle: 23

Station Type Date Time Source
KEYW TAF 2024/05/28 19:58 UTC NOAA